Provisional Data: Moose Creek near Plymptonville, PA


Please select a monitoring station.
Please select start date.
Please select start date.

Toggle Unit: C/F Toggle Unit: C/F
Sample Time Temperature (C) Temperature (F) Specific Conductivity (mS/cm) pH   Turbidity (NTU+) DO (mg/L)
8/1/2022 12:00:00 AM 16.45 61.61 0.213 6.85 2.85 8.93
8/1/2022 12:15:00 AM 16.43 61.574 0.213 6.84 2.62 8.93
8/1/2022 12:30:00 AM 16.42 61.556 0.213 6.87 2.72 8.9
8/1/2022 12:45:00 AM 16.4 61.52 0.213 6.86 2.64 8.94
8/1/2022 1:00:00 AM 16.39 61.502 0.213 6.87 2.59 8.94
8/1/2022 1:15:00 AM 16.37 61.466 0.213 6.87 2.76 8.94
8/1/2022 1:30:00 AM 16.35 61.43 0.213 6.87 2.65 8.95
8/1/2022 1:45:00 AM 16.33 61.394 0.213 6.87 2.66 8.95
8/1/2022 2:00:00 AM 16.31 61.358 0.213 6.9 2.73 8.96
8/1/2022 2:15:00 AM 16.29 61.322 0.213 6.86 2.63 8.96
8/1/2022 2:30:00 AM 16.28 61.304 0.213 6.89 2.76 8.96
8/1/2022 2:45:00 AM 16.27 61.286 0.214 6.86 2.6 8.96
8/1/2022 3:00:00 AM 16.25 61.25 0.214 6.9 2.63 8.97
8/1/2022 3:15:00 AM 16.24 61.232 0.214 6.88 2.69 8.97
8/1/2022 3:30:00 AM 16.24 61.232 0.214 6.87 3.01 8.97
8/1/2022 3:45:00 AM 16.23 61.214 0.214 6.85 2.61 8.97
8/1/2022 4:00:00 AM 16.22 61.196 0.215 6.83 2.76 8.97
8/1/2022 4:15:00 AM 16.21 61.178 0.215 6.85 2.83 8.97
8/1/2022 4:30:00 AM 16.21 61.178 0.215 6.83 2.76 8.97
8/1/2022 4:45:00 AM 16.2 61.16 0.215 6.86 2.66 8.98
8/1/2022 5:00:00 AM 16.2 61.16 0.216 6.86 2.72 8.98
8/1/2022 5:15:00 AM 16.19 61.142 0.216 6.85 2.7 8.98
8/1/2022 5:30:00 AM 16.18 61.124 0.216 6.85 2.63 8.98
8/1/2022 5:45:00 AM 16.17 61.106 0.217 6.85 2.74 8.98
8/1/2022 6:00:00 AM 16.17 61.106 0.217 6.82 3.26 8.98
8/1/2022 6:15:00 AM 16.16 61.088 0.217 6.83 2.95 8.98
8/1/2022 6:30:00 AM 16.16 61.088 0.218 6.8 2.82 8.98
8/1/2022 6:45:00 AM 16.15 61.07 0.218 6.81 2.7 8.98
8/1/2022 7:00:00 AM 16.15 61.07 0.218 6.81 2.56 8.98
8/1/2022 7:15:00 AM 16.15 61.07 0.219 6.82 2.74 8.99
8/1/2022 7:30:00 AM 16.14 61.052 0.219 6.82 2.78 8.99
8/1/2022 7:45:00 AM 16.15 61.07 0.219 6.82 2.72 8.99
8/1/2022 8:00:00 AM 16.15 61.07 0.219 6.86 2.52 8.99
8/1/2022 8:15:00 AM 16.15 61.07 0.219 6.86 2.62 8.99
8/1/2022 8:30:00 AM 16.16 61.088 0.219 6.86 2.65 9
8/1/2022 8:45:00 AM 16.18 61.124 0.219 6.87 2.63 9
8/1/2022 9:00:00 AM 16.19 61.142 0.219 6.88 3.04 9
8/1/2022 9:15:00 AM 16.21 61.178 0.219 6.88 2.92 8.99
8/1/2022 9:30:00 AM 16.25 61.25 0.219 6.88 2.69 8.99
8/1/2022 9:45:00 AM 16.28 61.304 0.219 6.88 3.02 8.99
8/1/2022 10:00:00 AM 16.31 61.358 0.219 6.89 3.19 8.98
8/1/2022 10:15:00 AM 16.35 61.43 0.219 6.89 2.63 8.98
8/1/2022 10:30:00 AM 16.38 61.484 0.219 6.9 2.61 8.97
8/1/2022 10:45:00 AM 16.42 61.556 0.219 6.9 2.62 8.96
8/1/2022 11:00:00 AM 16.44 61.592 0.219 6.89 2.76 8.95
8/1/2022 11:15:00 AM 16.47 61.646 0.219 6.89 2.76 8.95
8/1/2022 11:30:00 AM 16.52 61.736 0.219 6.92 2.69 8.95
8/1/2022 11:45:00 AM 16.57 61.826 0.219 6.91 2.53 8.94
8/1/2022 12:00:00 PM 16.62 61.916 0.218 6.91 2.73 8.93
8/1/2022 12:15:00 PM 16.68 62.024 0.218 6.89 2.71 8.92
8/1/2022 12:30:00 PM 16.72 62.096 0.218 6.9 2.7 8.91
8/1/2022 12:45:00 PM 16.77 62.186 0.218 6.92 2.57 8.9
8/1/2022 1:00:00 PM 16.84 62.312 0.218 6.9 2.64 8.89
8/1/2022 1:15:00 PM 16.9 62.42 0.218 6.91 2.8 8.88
8/1/2022 1:30:00 PM 16.96 62.528 0.218 6.92 3.39 8.86
8/1/2022 1:45:00 PM 17 62.6 0.217 6.92 2.69 8.85
8/1/2022 2:00:00 PM 17.04 62.672 0.217 6.9 2.62 8.84
8/1/2022 2:15:00 PM 17.07 62.726 0.217 6.9 2.86 8.83
8/1/2022 2:30:00 PM 17.1 62.78 0.217 6.89 2.89 8.82
8/1/2022 2:45:00 PM 17.11 62.798 0.217 6.9 2.69 8.81
8/1/2022 3:00:00 PM 17.14 62.852 0.217 6.89 2.79 8.81
8/1/2022 3:15:00 PM 17.17 62.906 0.217 6.9 3.14 8.8
8/1/2022 3:30:00 PM 17.2 62.96 0.217 6.91 3.45 8.79
8/1/2022 3:45:00 PM 17.24 63.032 0.217 6.89 3 8.78
8/1/2022 4:00:00 PM 17.27 63.086 0.216 6.89 3.7 8.76
8/1/2022 4:15:00 PM 17.3 63.14 0.216 6.88 2.76 8.75
8/1/2022 4:30:00 PM 17.34 63.212 0.216 6.88 2.83 8.74
8/1/2022 4:45:00 PM 17.36 63.248 0.216 6.89 2.52 8.74
8/1/2022 5:00:00 PM 17.38 63.284 0.216 6.88 2.68 8.73
8/1/2022 5:15:00 PM 17.39 63.302 0.216 6.87 2.56 8.72
8/1/2022 5:30:00 PM 17.39 63.302 0.216 6.88 2.63 8.71
8/1/2022 5:45:00 PM 17.4 63.32 0.215 6.88 2.65 8.71
8/1/2022 6:00:00 PM 17.39 63.302 0.215 6.87 2.47 8.71
8/1/2022 6:15:00 PM 17.39 63.302 0.215 6.85 2.92 8.71
8/1/2022 6:30:00 PM 17.39 63.302 0.215 6.85 2.9 8.7
8/1/2022 6:45:00 PM 17.39 63.302 0.215 6.84 2.61 8.69
8/1/2022 7:00:00 PM 17.39 63.302 0.214 6.83 3.58 8.69
8/1/2022 7:15:00 PM 17.38 63.284 0.214 6.81 2.88 8.69
8/1/2022 7:30:00 PM 17.38 63.284 0.214 6.81 2.89 8.69
8/1/2022 7:45:00 PM 17.37 63.266 0.214 6.78 2.7 8.68
8/1/2022 8:00:00 PM 17.36 63.248 0.213 6.79 2.68 8.68
8/1/2022 8:15:00 PM 17.35 63.23 0.213 6.81 2.67 8.68
8/1/2022 8:30:00 PM 17.34 63.212 0.213 6.8 2.6 8.68
8/1/2022 8:45:00 PM 17.33 63.194 0.212 6.81 2.68 8.68
8/1/2022 9:00:00 PM 17.32 63.176 0.212 6.8 3.07 8.68
8/1/2022 9:15:00 PM 17.31 63.158 0.212 6.81 2.75 8.69
8/1/2022 9:30:00 PM 17.3 63.14 0.211 6.82 2.73 8.69
8/1/2022 9:45:00 PM 17.28 63.104 0.211 6.82 2.85 8.7
8/1/2022 10:00:00 PM 17.27 63.086 0.211 6.8 2.7 8.7
8/1/2022 10:15:00 PM 17.25 63.05 0.211 6.84 2.63 8.7
8/1/2022 10:30:00 PM 17.24 63.032 0.211 6.81 2.69 8.7
8/1/2022 10:45:00 PM 17.22 62.996 0.21 6.84 2.63 8.71
8/1/2022 11:00:00 PM 17.21 62.978 0.211 6.84 2.75 8.71
8/1/2022 11:15:00 PM 17.19 62.942 0.21 6.84 2.74 8.71
8/1/2022 11:30:00 PM 17.17 62.906 0.21 6.84 2.8 8.71
8/1/2022 11:45:00 PM 17.15 62.87 0.21 6.83 2.88 8.72
8/2/2022 12:00:00 AM 17.14 62.852 0.21 6.82 2.85 8.72
8/2/2022 12:15:00 AM 17.12 62.816 0.21 6.83 3.1 8.73
8/2/2022 12:30:00 AM 17.1 62.78 0.21 6.85 2.73 8.73
8/2/2022 12:45:00 AM 17.09 62.762 0.21 6.83 2.83 8.73
8/2/2022 1:00:00 AM 17.07 62.726 0.21 6.82 2.79 8.73
8/2/2022 1:15:00 AM 17.06 62.708 0.21 6.84 2.83 8.73
8/2/2022 1:30:00 AM 17.07 62.726 0.21 6.84 2.77 8.74
8/2/2022 1:45:00 AM 17.08 62.744 0.21 6.83 3.19 8.74
8/2/2022 2:00:00 AM 17.09 62.762 0.21 6.86 2.92 8.74
8/2/2022 2:15:00 AM 17.11 62.798 0.21 6.85 2.67 8.73
8/2/2022 2:30:00 AM 17.12 62.816 0.21 6.83 2.85 8.73
8/2/2022 2:45:00 AM 17.13 62.834 0.21 6.86 2.74 8.73
8/2/2022 3:00:00 AM 17.15 62.87 0.21 6.84 2.72 8.73
8/2/2022 3:15:00 AM 17.16 62.888 0.211 6.85 2.79 8.72
8/2/2022 3:30:00 AM 17.17 62.906 0.211 6.86 2.69 8.72
8/2/2022 3:45:00 AM 17.18 62.924 0.211 6.86 2.8 8.72
8/2/2022 4:00:00 AM 17.19 62.942 0.212 6.87 2.84 8.71
8/2/2022 4:15:00 AM 17.19 62.942 0.212 6.85 2.85 8.72
8/2/2022 4:30:00 AM 17.2 62.96 0.213 6.86 2.83 8.72
8/2/2022 4:45:00 AM 17.2 62.96 0.213 6.86 2.75 8.72
8/2/2022 5:00:00 AM 17.21 62.978 0.214 6.85 2.63 8.72
8/2/2022 5:15:00 AM 17.21 62.978 0.214 6.86 2.91 8.72
8/2/2022 5:30:00 AM 17.21 62.978 0.215 6.84 2.91 8.72
8/2/2022 5:45:00 AM 17.21 62.978 0.215 6.84 2.86 8.72
8/2/2022 6:00:00 AM 17.21 62.978 0.215 6.84 2.85 8.72
8/2/2022 6:15:00 AM 17.21 62.978 0.216 6.84 3.23 8.72
8/2/2022 6:30:00 AM 17.21 62.978 0.216 6.83 3.23 8.72
8/2/2022 6:45:00 AM 17.21 62.978 0.217 6.84 2.98 8.73
8/2/2022 7:00:00 AM 17.21 62.978 0.217 6.82 3.07 8.73
8/2/2022 7:15:00 AM 17.21 62.978 0.218 6.84 2.81 8.73
8/2/2022 7:30:00 AM 17.21 62.978 0.218 6.83 2.76 8.73
8/2/2022 7:45:00 AM 17.22 62.996 0.219 6.83 3.6 8.74
8/2/2022 8:00:00 AM 17.22 62.996 0.219 6.83 2.84 8.74
8/2/2022 8:15:00 AM 17.23 63.014 0.219 6.85 2.73 8.74
8/2/2022 8:30:00 AM 17.23 63.014 0.22 6.82 2.86 8.74
8/2/2022 8:45:00 AM 17.25 63.05 0.22 6.85 2.76 8.74
8/2/2022 9:00:00 AM 17.26 63.068 0.22 6.85 2.6 8.74
8/2/2022 9:15:00 AM 17.28 63.104 0.22 6.87 2.93 8.74
8/2/2022 9:30:00 AM 17.3 63.14 0.221 6.86 2.83 8.74
8/2/2022 9:45:00 AM 17.32 63.176 0.221 6.85 3.09 8.74
8/2/2022 10:00:00 AM 17.36 63.248 0.221 6.87 2.94 8.74
8/2/2022 10:15:00 AM 17.37 63.266 0.221 6.85 2.74 8.73
8/2/2022 10:30:00 AM 17.4 63.32 0.221 6.86 2.68 8.73
8/2/2022 10:45:00 AM 17.44 63.392 0.221 6.86 2.87 8.73
8/2/2022 11:00:00 AM 17.47 63.446 0.221 6.89 2.72 8.73
8/2/2022 11:15:00 AM 17.51 63.518 0.221 6.89 2.71 8.72
8/2/2022 11:30:00 AM 17.55 63.59 0.221 6.88 2.66 8.72
8/2/2022 11:45:00 AM 17.59 63.662 0.221 6.86 2.8 8.71
8/2/2022 12:00:00 PM 17.65 63.77 0.221 6.86 2.65 8.7
8/2/2022 12:15:00 PM 17.72 63.896 0.221 6.9 2.62 8.69
8/2/2022 12:30:00 PM 17.79 64.022 0.221 6.9 2.74 8.67
8/2/2022 12:45:00 PM 17.84 64.112 0.221 6.9 2.77 8.66
8/2/2022 1:00:00 PM 17.9 64.22 0.221 6.88 2.87 8.65
8/2/2022 1:15:00 PM 17.96 64.328 0.221 6.91 2.67 8.64
8/2/2022 1:30:00 PM 18.03 64.454 0.221 6.91 2.87 8.63
8/2/2022 1:45:00 PM 18.09 64.562 0.22 6.87 2.67 8.62
8/2/2022 2:00:00 PM 18.15 64.67 0.22 6.87 2.86 8.6
8/2/2022 2:15:00 PM 18.19 64.742 0.22 6.9 2.74 8.59
8/2/2022 2:30:00 PM 18.26 64.868 0.22 6.9 2.93 8.58
8/2/2022 2:45:00 PM 18.31 64.958 0.22 6.9 2.8 8.56
8/2/2022 3:00:00 PM 18.35 65.03 0.22 6.89 2.81 8.55
8/2/2022 3:15:00 PM 18.39 65.102 0.22 6.91 2.84 8.54
8/2/2022 3:30:00 PM 18.41 65.138 0.219 6.88 3.01 8.54
8/2/2022 3:45:00 PM 18.41 65.138 0.219 6.87 2.68 8.54
8/2/2022 4:00:00 PM 18.42 65.156 0.219 6.87 2.79 8.53
8/2/2022 4:15:00 PM 18.44 65.192 0.219 6.88 2.76 8.53
8/2/2022 4:30:00 PM 18.45 65.21 0.218 6.87 2.73 8.53
8/2/2022 4:45:00 PM 18.46 65.228 0.218 6.86 2.65 8.52
8/2/2022 5:00:00 PM 18.48 65.264 0.218 6.85 2.63 8.51
8/2/2022 5:15:00 PM 18.48 65.264 0.218 6.85 2.73 8.51
8/2/2022 5:30:00 PM 18.48 65.264 0.218 6.85 3.11 8.5
8/2/2022 5:45:00 PM 18.47 65.246 0.218 6.85 2.69 8.5
8/2/2022 6:00:00 PM 18.47 65.246 0.217 6.86 2.56 8.5
8/2/2022 6:15:00 PM 18.46 65.228 0.217 6.86 2.69 8.5
8/2/2022 6:30:00 PM 18.44 65.192 0.217 6.86 2.65 8.5
8/2/2022 6:45:00 PM 18.43 65.174 0.216 6.83 2.66 8.5
8/2/2022 7:00:00 PM 18.4 65.12 0.216 6.84 2.74 8.5
8/2/2022 7:15:00 PM 18.37 65.066 0.216 6.84 2.64 8.51
8/2/2022 7:30:00 PM 18.34 65.012 0.215 6.83 2.69 8.51
8/2/2022 7:45:00 PM 18.31 64.958 0.215 6.82 2.66 8.51
8/2/2022 8:00:00 PM 18.28 64.904 0.214 6.82 2.71 8.51
8/2/2022 8:15:00 PM 18.25 64.85 0.214 6.82 2.6 8.52
8/2/2022 8:30:00 PM 18.21 64.778 0.213 6.82 2.9 8.53
8/2/2022 8:45:00 PM 18.17 64.706 0.213 6.82 3.36 8.53
8/2/2022 9:00:00 PM 18.12 64.616 0.213 6.81 3.39 8.54
8/2/2022 9:15:00 PM 18.07 64.526 0.212 6.82 2.94 8.55
8/2/2022 9:30:00 PM 18.01 64.418 0.212 6.83 2.86 8.56
8/2/2022 9:45:00 PM 17.95 64.31 0.211 6.83 2.85 8.57
8/2/2022 10:00:00 PM 17.89 64.202 0.211 6.84 2.74 8.58
8/2/2022 10:15:00 PM 17.83 64.094 0.21 6.83 2.91 8.59
8/2/2022 10:30:00 PM 17.76 63.968 0.21 6.83 2.96 8.6
8/2/2022 10:45:00 PM 17.7 63.86 0.21 6.82 2.96 8.62
8/2/2022 11:00:00 PM 17.63 63.734 0.209 6.81 2.95 8.63
8/2/2022 11:15:00 PM 17.56 63.608 0.209 6.82 2.92 8.64
8/2/2022 11:30:00 PM 17.5 63.5 0.209 6.82 3.25 8.66
8/2/2022 11:45:00 PM 17.43 63.374 0.209 6.79 2.84 8.67
8/3/2022 12:00:00 AM 17.36 63.248 0.208 6.8 2.8 8.68
8/3/2022 12:15:00 AM 17.28 63.104 0.208 6.82 2.65 8.71
8/3/2022 12:30:00 AM 17.22 62.996 0.208 6.81 2.85 8.72
8/3/2022 12:45:00 AM 17.15 62.87 0.208 6.82 2.86 8.73
8/3/2022 1:00:00 AM 17.08 62.744 0.207 6.83 2.91 8.74
8/3/2022 1:15:00 AM 17.01 62.618 0.207 6.82 2.79 8.76
8/3/2022 1:30:00 AM 16.94 62.492 0.207 6.8 2.91 8.77
8/3/2022 1:45:00 AM 16.87 62.366 0.207 6.79 2.86 8.79
8/3/2022 2:00:00 AM 16.81 62.258 0.206 6.79 2.81 8.8
8/3/2022 2:15:00 AM 16.74 62.132 0.206 6.83 2.83 8.82
8/3/2022 2:30:00 AM 16.67 62.006 0.206 6.82 2.89 8.84
8/3/2022 2:45:00 AM 16.6 61.88 0.206 6.81 3 8.85
8/3/2022 3:00:00 AM 16.54 61.772 0.206 6.81 3.09 8.86
8/3/2022 3:15:00 AM 16.47 61.646 0.206 6.81 2.81 8.88
8/3/2022 3:30:00 AM 16.4 61.52 0.205 6.81 2.78 8.89
8/3/2022 3:45:00 AM 16.33 61.394 0.205 6.81 3.46 8.91
8/3/2022 4:00:00 AM 16.26 61.268 0.206 6.8 3.19 8.92
8/3/2022 4:15:00 AM 16.19 61.142 0.206 6.84 3.05 8.94
8/3/2022 4:30:00 AM 16.13 61.034 0.206 6.82 3.16 8.95
8/3/2022 4:45:00 AM 16.06 60.908 0.206 6.82 2.99 8.97
8/3/2022 5:00:00 AM 15.99 60.782 0.207 6.84 3.31 8.98
8/3/2022 5:15:00 AM 15.92 60.656 0.207 6.82 3.58 9
8/3/2022 5:30:00 AM 15.86 60.548 0.207 6.82 3.13 9.01
8/3/2022 5:45:00 AM 15.79 60.422 0.208 6.85 2.89 9.03
8/3/2022 6:00:00 AM 15.73 60.314 0.209 6.86 3.28 9.05
8/3/2022 6:15:00 AM 15.67 60.206 0.21 6.84 3.08 9.06
8/3/2022 6:30:00 AM 15.61 60.098 0.21 6.85 3.13 9.07
8/3/2022 6:45:00 AM 15.54 59.972 0.211 6.84 2.9 9.09
8/3/2022 7:00:00 AM 15.49 59.882 0.211 6.83 3.04 9.1
8/3/2022 7:15:00 AM 15.43 59.774 0.212 6.85 2.95 9.11
8/3/2022 7:30:00 AM 15.39 59.702 0.212 6.83 2.72 9.13
8/3/2022 7:45:00 AM 15.36 59.648 0.213 6.83 2.72 9.14
8/3/2022 8:00:00 AM 15.34 59.612 0.213 6.86 2.82 9.15
8/3/2022 8:15:00 AM 15.33 59.594 0.214 6.83 2.85 9.15
8/3/2022 8:30:00 AM 15.32 59.576 0.214 6.84 2.73 9.16
8/3/2022 8:45:00 AM 15.34 59.612 0.215 6.85 2.74 9.16
8/3/2022 9:00:00 AM 15.37 59.666 0.215 6.86 2.79 9.15
8/3/2022 9:15:00 AM 15.4 59.72 0.216 6.86 2.69 9.15
8/3/2022 9:30:00 AM 15.45 59.81 0.216 6.85 2.81 9.15
8/3/2022 9:45:00 AM 15.52 59.936 0.217 6.85 3.14 9.14
8/3/2022 10:00:00 AM 15.59 60.062 0.217 6.83 2.96 9.13
8/3/2022 10:15:00 AM 15.66 60.188 0.218 6.83 2.69 9.12
8/3/2022 10:30:00 AM 15.73 60.314 0.218 6.85 2.9 9.11
8/3/2022 10:45:00 AM 15.8 60.44 0.219 6.86 2.76 9.09
8/3/2022 11:00:00 AM 15.9 60.62 0.219 6.86 2.65 9.08
8/3/2022 11:15:00 AM 16 60.8 0.22 6.86 2.71 9.06
8/3/2022 11:30:00 AM 16.11 60.998 0.22 6.87 2.75 9.04
8/3/2022 11:45:00 AM 16.21 61.178 0.22 6.88 2.95 9.02
8/3/2022 12:00:00 PM 16.31 61.358 0.221 6.89 2.59 9
8/3/2022 12:15:00 PM 16.43 61.574 0.221 6.87 2.68 8.98
8/3/2022 12:30:00 PM 16.53 61.754 0.221 6.88 2.79 8.96
8/3/2022 12:45:00 PM 16.65 61.97 0.221 6.87 2.68 8.93
8/3/2022 1:00:00 PM 16.76 62.168 0.222 6.87 2.7 8.91
8/3/2022 1:15:00 PM 16.87 62.366 0.222 6.87 2.61 8.89
8/3/2022 1:30:00 PM 16.99 62.582 0.223 6.87 2.78 8.86
8/3/2022 1:45:00 PM 17.08 62.744 0.223 6.86 2.77 8.84
8/3/2022 2:00:00 PM 17.17 62.906 0.223 6.86 2.77 8.82
8/3/2022 2:15:00 PM 17.26 63.068 0.223 6.88 2.77 8.79
8/3/2022 2:30:00 PM 17.34 63.212 0.224 6.88 2.64 8.78
8/3/2022 2:45:00 PM 17.45 63.41 0.225 6.87 2.67 8.75
8/3/2022 3:00:00 PM 17.55 63.59 0.225 6.87 2.67 8.73
8/3/2022 3:15:00 PM 17.63 63.734 0.225 6.86 2.62 8.71
8/3/2022 3:30:00 PM 17.7 63.86 0.225 6.86 2.64 8.69
8/3/2022 3:45:00 PM 17.75 63.95 0.225 6.84 2.74 8.68
8/3/2022 4:00:00 PM 17.79 64.022 0.225 6.85 2.66 8.66
8/3/2022 4:15:00 PM 17.82 64.076 0.225 6.86 2.69 8.64
8/3/2022 4:30:00 PM 17.86 64.148 0.226 6.88 2.61 8.63
8/3/2022 4:45:00 PM 17.9 64.22 0.226 6.84 2.8 8.62
8/3/2022 5:00:00 PM 17.93 64.274 0.225 6.83 2.68 8.61
8/3/2022 5:15:00 PM 17.96 64.328 0.226 6.82 2.71 8.61
8/3/2022 5:30:00 PM 17.99 64.382 0.225 6.81 2.7 8.59
8/3/2022 5:45:00 PM 18.01 64.418 0.225 6.83 2.65 8.58
8/3/2022 6:00:00 PM 18.03 64.454 0.224 6.83 2.61 8.57
8/3/2022 6:15:00 PM 18.05 64.49 0.224 6.83 2.74 8.57
8/3/2022 6:30:00 PM 18.07 64.526 0.224 6.81 2.52 8.56
8/3/2022 6:45:00 PM 18.08 64.544 0.224 6.8 2.59 8.55
8/3/2022 7:00:00 PM 18.09 64.562 0.223 6.81 2.71 8.55
8/3/2022 7:15:00 PM 18.09 64.562 0.223 6.8 2.72 8.54
8/3/2022 7:30:00 PM 18.08 64.544 0.223 6.77 2.67 8.54
8/3/2022 7:45:00 PM 18.08 64.544 0.222 6.77 2.77 8.54
8/3/2022 8:00:00 PM 18.08 64.544 0.222 6.77 2.6 8.54
8/3/2022 8:15:00 PM 18.07 64.526 0.221 6.76 2.57 8.54
8/3/2022 8:30:00 PM 18.06 64.508 0.221 6.75 2.67 8.54
8/3/2022 8:45:00 PM 18.04 64.472 0.221 6.77 2.65 8.54
8/3/2022 9:00:00 PM 18.03 64.454 0.22 6.76 2.96 8.54
8/3/2022 9:15:00 PM 18.02 64.436 0.219 6.79 2.89 8.54
8/3/2022 9:30:00 PM 18.01 64.418 0.219 6.78 2.99 8.55
8/3/2022 9:45:00 PM 17.99 64.382 0.219 6.77 2.79 8.55
8/3/2022 10:00:00 PM 17.98 64.364 0.218 6.79 2.89 8.55
8/3/2022 10:15:00 PM 17.96 64.328 0.217 6.77 2.86 8.56
8/3/2022 10:30:00 PM 17.95 64.31 0.217 6.77 2.69 8.56
8/3/2022 10:45:00 PM 17.93 64.274 0.216 6.79 2.7 8.56
8/3/2022 11:00:00 PM 17.91 64.238 0.216 6.78 3.23 8.57
8/3/2022 11:15:00 PM 17.9 64.22 0.215 6.79 3.09 8.57
8/3/2022 11:30:00 PM 17.88 64.184 0.215 6.77 2.88 8.58
8/3/2022 11:45:00 PM 17.86 64.148 0.214 6.79 3 8.58
8/4/2022 12:00:00 AM 17.85 64.13 0.214 6.78 2.85 8.58
8/4/2022 12:15:00 AM 17.83 64.094 0.213 6.78 2.84 8.59
8/4/2022 12:30:00 AM 17.82 64.076 0.213 6.76 2.81 8.59
8/4/2022 12:45:00 AM 17.8 64.04 0.213 6.76 2.98 8.6
8/4/2022 1:00:00 AM 17.78 64.004 0.212 6.76 2.8 8.6
8/4/2022 1:15:00 AM 17.77 63.986 0.212 6.77 2.92 8.61
8/4/2022 1:30:00 AM 17.75 63.95 0.212 6.76 2.68 8.62
8/4/2022 1:45:00 AM 17.73 63.914 0.212 6.77 2.68 8.62
8/4/2022 2:00:00 AM 17.72 63.896 0.211 6.77 2.6 8.63
8/4/2022 2:15:00 AM 17.7 63.86 0.211 6.79 2.62 8.63
8/4/2022 2:30:00 AM 17.68 63.824 0.21 6.76 2.83 8.63
8/4/2022 2:45:00 AM 17.67 63.806 0.21 6.78 2.79 8.64
8/4/2022 3:00:00 AM 17.65 63.77 0.21 6.77 2.77 8.64
8/4/2022 3:15:00 AM 17.63 63.734 0.21 6.78 2.69 8.65
8/4/2022 3:30:00 AM 17.62 63.716 0.209 6.76 2.64 8.65
8/4/2022 3:45:00 AM 17.6 63.68 0.209 6.76 2.84 8.65
8/4/2022 4:00:00 AM 17.58 63.644 0.209 6.77 2.71 8.66
8/4/2022 4:15:00 AM 17.57 63.626 0.209 6.79 2.77 8.67
8/4/2022 4:30:00 AM 17.55 63.59 0.209 6.79 3.54 8.68
8/4/2022 4:45:00 AM 17.53 63.554 0.209 6.8 2.76 8.68
8/4/2022 5:00:00 AM 17.52 63.536 0.209 6.78 2.79 8.69
8/4/2022 5:15:00 AM 17.5 63.5 0.209 6.79 3.21 8.69
8/4/2022 5:30:00 AM 17.48 63.464 0.21 6.8 3.59 8.7
8/4/2022 5:45:00 AM 17.47 63.446 0.211 6.79 3.08 8.7
8/4/2022 6:00:00 AM 17.45 63.41 0.211 6.78 2.79 8.7
8/4/2022 6:15:00 AM 17.43 63.374 0.212 6.78 2.62 8.71
8/4/2022 6:30:00 AM 17.42 63.356 0.213 6.77 2.68 8.71
8/4/2022 6:45:00 AM 17.4 63.32 0.214 6.78 2.69 8.72
8/4/2022 7:00:00 AM 17.39 63.302 0.215 6.75 2.68 8.72
8/4/2022 7:15:00 AM 17.38 63.284 0.216 6.76 2.78 8.73
8/4/2022 7:30:00 AM 17.37 63.266 0.217 6.76 2.67 8.73
8/4/2022 7:45:00 AM 17.37 63.266 0.217 6.76 2.82 8.74
8/4/2022 8:00:00 AM 17.37 63.266 0.218 6.77 2.79 8.75
8/4/2022 8:15:00 AM 17.38 63.284 0.219 6.77 2.54 8.75
8/4/2022 8:30:00 AM 17.4 63.32 0.219 6.81 2.73 8.74
8/4/2022 8:45:00 AM 17.43 63.374 0.22 6.79 2.6 8.74
8/4/2022 9:00:00 AM 17.49 63.482 0.218 6.79 4.03 8.73
8/4/2022 9:15:00 AM 17.6 63.68 0.21 6.8 7.43 8.7
8/4/2022 9:30:00 AM 17.62 63.716 0.21 6.79 5.53 8.67
8/4/2022 9:45:00 AM 17.65 63.77 0.21 6.8 4.49 8.66
8/4/2022 10:00:00 AM 17.7 63.86 0.209 6.81 4.15 8.66
8/4/2022 10:15:00 AM 17.76 63.968 0.21 6.82 3.73 8.66
8/4/2022 10:30:00 AM 17.79 64.022 0.211 6.84 3.45 8.65
8/4/2022 10:45:00 AM 17.84 64.112 0.214 6.86 4.31 8.65
8/4/2022 11:00:00 AM 17.91 64.238 0.215 6.85 3.4 8.65
8/4/2022 11:15:00 AM 17.96 64.328 0.217 6.84 3.04 8.65
8/4/2022 11:30:00 AM 18 64.4 0.217 6.85 3.27 8.63
8/4/2022 11:45:00 AM 18.04 64.472 0.218 6.86 3.08 8.63
8/4/2022 12:00:00 PM 18.06 64.508 0.218 6.86 3.12 8.62
8/4/2022 12:15:00 PM 18.07 64.526 0.217 6.85 3.12 8.63
8/4/2022 12:30:00 PM 18.09 64.562 0.216 6.83 2.96 8.63
8/4/2022 12:45:00 PM 18.15 64.67 0.216 6.83 3.39 8.64
8/4/2022 1:00:00 PM 18.23 64.814 0.214 6.86 2.97 8.63
8/4/2022 1:15:00 PM 18.31 64.958 0.212 6.84 2.88 8.63
8/4/2022 1:30:00 PM 18.39 65.102 0.211 6.85 2.83 8.61
8/4/2022 1:45:00 PM 18.49 65.282 0.209 6.85 2.82 8.6
8/4/2022 2:00:00 PM 18.58 65.444 0.209 6.85 2.88 8.58
8/4/2022 2:15:00 PM 18.67 65.606 0.209 6.85 2.84 8.57
8/4/2022 2:30:00 PM 18.77 65.786 0.209 6.86 2.88 8.55
8/4/2022 2:45:00 PM 18.84 65.912 0.21 6.84 2.7 8.54
8/4/2022 3:00:00 PM 18.9 66.02 0.209 6.84 2.84 8.51
8/4/2022 3:15:00 PM 18.93 66.074 0.208 6.86 2.8 8.51
8/4/2022 3:30:00 PM 18.98 66.164 0.206 6.85 3.21 8.51
8/4/2022 3:45:00 PM 19.01 66.218 0.205 6.85 3.91 8.5
8/4/2022 4:00:00 PM 19.03 66.254 0.204 6.84 3 8.49
8/4/2022 4:15:00 PM 19.08 66.344 0.203 6.85 3.02 8.48
8/4/2022 4:30:00 PM 19.11 66.398 0.203 6.86 2.95 8.46
8/4/2022 4:45:00 PM 19.1 66.38 0.202 6.84 2.89 8.45
8/4/2022 5:00:00 PM 19.08 66.344 0.2 6.87 3.06 8.46
8/4/2022 5:15:00 PM 19.06 66.308 0.199 6.84 3.17 8.46
8/4/2022 5:30:00 PM 19.03 66.254 0.198 6.86 2.77 8.46
8/4/2022 5:45:00 PM 18.99 66.182 0.199 6.83 2.82 8.47
8/4/2022 6:00:00 PM 18.95 66.11 0.201 6.84 4 8.48
8/4/2022 6:15:00 PM 18.92 66.056 0.203 6.81 3.07 8.48
8/4/2022 6:30:00 PM 18.89 66.002 0.206 6.83 2.63 8.48
8/4/2022 6:45:00 PM 18.86 65.948 0.208 6.84 2.85 8.48
8/4/2022 7:00:00 PM 18.83 65.894 0.21 6.82 2.6 8.49
8/4/2022 7:15:00 PM 18.8 65.84 0.211 6.81 2.84 8.49
8/4/2022 7:30:00 PM 18.77 65.786 0.212 6.83 2.88 8.49
8/4/2022 7:45:00 PM 18.74 65.732 0.212 6.78 2.56 8.49
8/4/2022 8:00:00 PM 18.71 65.67799 0.212 6.79 2.67 8.5
8/4/2022 8:15:00 PM 18.68 65.624 0.212 6.79 2.81 8.51
8/4/2022 8:30:00 PM 18.65 65.57 0.212 6.79 2.78 8.51
8/4/2022 8:45:00 PM 18.61 65.498 0.212 6.79 2.93 8.51
8/4/2022 9:00:00 PM 18.58 65.444 0.212 6.84 2.75 8.52
8/4/2022 9:15:00 PM 18.55 65.39 0.212 6.84 2.78 8.52
8/4/2022 9:30:00 PM 18.51 65.318 0.211 6.82 2.86 8.53
8/4/2022 9:45:00 PM 18.47 65.246 0.211 6.84 2.76 8.54
8/4/2022 10:00:00 PM 18.44 65.192 0.211 6.81 2.77 8.54
8/4/2022 10:15:00 PM 18.41 65.138 0.211 6.83 2.97 8.55
8/4/2022 10:30:00 PM 18.37 65.066 0.211 6.83 2.9 8.55
8/4/2022 10:45:00 PM 18.34 65.012 0.21 6.79 2.76 8.56
8/4/2022 11:00:00 PM 18.31 64.958 0.21 6.79 2.72 8.57
8/4/2022 11:15:00 PM 18.28 64.904 0.21 6.79 2.93 8.57
8/4/2022 11:30:00 PM 18.25 64.85 0.21 6.77 3.22 8.58
8/4/2022 11:45:00 PM 18.22 64.796 0.209 6.8 2.73 8.58
8/5/2022 12:00:00 AM 18.2 64.76 0.209 6.83 2.82 8.59
8/5/2022 12:15:00 AM 18.17 64.706 0.209 6.79 2.81 8.6
8/5/2022 12:30:00 AM 18.14 64.652 0.209 6.8 2.97 8.61
8/5/2022 12:45:00 AM 18.11 64.598 0.208 6.83 2.78 8.61
8/5/2022 1:00:00 AM 18.08 64.544 0.208 6.83 2.71 8.62
8/5/2022 1:15:00 AM 18.06 64.508 0.208 6.8 2.75 8.63
8/5/2022 1:30:00 AM 18.03 64.454 0.209 6.8 2.9 8.63
8/5/2022 1:45:00 AM 18.01 64.418 0.209 6.73 2.8 8.63
8/5/2022 2:00:00 AM 17.98 64.364 0.209 6.84 2.97 8.64
8/5/2022 2:15:00 AM 17.96 64.328 0.209 6.79 2.73 8.64
8/5/2022 2:30:00 AM 17.94 64.292 0.209 6.81 2.61 8.65
8/5/2022 2:45:00 AM 17.92 64.256 0.21 6.81 2.82 8.66
8/5/2022 3:00:00 AM 17.89 64.202 0.21 6.8 2.87 8.66
8/5/2022 3:15:00 AM 17.87 64.166 0.21 6.8 2.67 8.67
8/5/2022 3:30:00 AM 17.85 64.13 0.21 6.82 2.76 8.67
8/5/2022 3:45:00 AM 17.83 64.094 0.21 6.81 2.67 8.67
8/5/2022 4:00:00 AM 17.81 64.058 0.211 6.83 2.76 8.68
8/5/2022 4:15:00 AM 17.79 64.022 0.211 6.84 2.84 8.68
8/5/2022 4:30:00 AM 17.77 63.986 0.211 6.8 2.99 8.69
8/5/2022 4:45:00 AM 17.75 63.95 0.211 6.83 3.09 8.69
8/5/2022 5:00:00 AM 17.73 63.914 0.212 6.8 2.93 8.7
8/5/2022 5:15:00 AM 17.72 63.896 0.212 6.83 2.9 8.7
8/5/2022 5:30:00 AM 17.7 63.86 0.212 6.82 2.95 8.7
8/5/2022 5:45:00 AM 17.68 63.824 0.212 6.79 2.78 8.7
8/5/2022 6:00:00 AM 17.67 63.806 0.212 6.79 2.79 8.71
8/5/2022 6:15:00 AM 17.65 63.77 0.213 6.77 3.17 8.71
8/5/2022 6:30:00 AM 17.64 63.752 0.212 6.77 2.92 8.71
8/5/2022 6:45:00 AM 17.63 63.734 0.213 6.77 2.77 8.72
8/5/2022 7:00:00 AM 17.61 63.698 0.213 6.77 2.68 8.72
8/5/2022 7:15:00 AM 17.61 63.698 0.213 6.77 2.89 8.73
8/5/2022 7:30:00 AM 17.59 63.662 0.214 6.76 2.79 8.72
8/5/2022 7:45:00 AM 17.59 63.662 0.214 6.79 2.83 8.73
8/5/2022 8:00:00 AM 17.58 63.644 0.214 6.74 2.74 8.73
8/5/2022 8:15:00 AM 17.57 63.626 0.214 6.75 2.77 8.74
8/5/2022 8:30:00 AM 17.57 63.626 0.214 6.76 2.89 8.74
8/5/2022 8:45:00 AM 17.57 63.626 0.215 6.74 2.65 8.75
8/5/2022 9:00:00 AM 17.57 63.626 0.215 6.77 2.66 8.75
8/5/2022 9:15:00 AM 17.58 63.644 0.215 6.78 2.67 8.75
8/5/2022 9:30:00 AM 17.58 63.644 0.216 6.77 2.65 8.76
8/5/2022 9:45:00 AM 17.59 63.662 0.216 6.77 2.72 8.76
8/5/2022 10:00:00 AM 17.6 63.68 0.216 6.8 2.73 8.75
8/5/2022 10:15:00 AM 17.61 63.698 0.216 6.78 3.08 8.75
8/5/2022 10:30:00 AM 17.63 63.734 0.216 6.81 2.63 8.76
8/5/2022 10:45:00 AM 17.65 63.77 0.216 6.8 3.32 8.76
8/5/2022 11:00:00 AM 17.67 63.806 0.216 6.81 2.61 8.7
8/5/2022 11:15:00 AM 17.7 63.86 0.217 6.8 2.8 8.76
8/5/2022 11:30:00 AM 17.73 63.914 0.217 6.84 2.5 8.75
8/5/2022 11:45:00 AM 17.77 63.986 0.217 6.82 3.1 8.75
8/5/2022 12:00:00 PM 17.81 64.058 0.217 6.84 2.54 8.74
8/5/2022 12:15:00 PM 17.85 64.13 0.217 6.84 2.58 8.74
8/5/2022 12:30:00 PM 17.9 64.22 0.217 6.85 2.88 8.73
8/5/2022 12:45:00 PM 17.96 64.328 0.217 6.85 2.65 8.73
8/5/2022 1:00:00 PM 18.02 64.436 0.217 6.84 3.04 8.71
8/5/2022 1:15:00 PM 18.08 64.544 0.217 6.86 2.71 8.7
8/5/2022 1:30:00 PM 18.14 64.652 0.217 6.86 2.65 8.69
8/5/2022 1:45:00 PM 18.21 64.778 0.217 6.87 2.67 8.68
8/5/2022 2:00:00 PM 18.26 64.868 0.217 6.87 2.64 8.66
8/5/2022 2:15:00 PM 18.31 64.958 0.216 6.83 2.7 8.64
8/5/2022 2:30:00 PM 18.35 65.03 0.217 6.85 2.54 8.63
8/5/2022 2:45:00 PM 18.41 65.138 0.216 6.86 2.67 8.62
8/5/2022 3:00:00 PM 18.47 65.246 0.216 6.83 2.71 8.6
8/5/2022 3:15:00 PM 18.53 65.354 0.216 6.82 2.69 8.59
8/5/2022 3:30:00 PM 18.57 65.426 0.216 6.86 2.73 8.58
8/5/2022 3:45:00 PM 18.61 65.498 0.216 6.82 2.47 8.57
8/5/2022 4:00:00 PM 18.63 65.534 0.216 6.83 2.7 8.56
8/5/2022 4:15:00 PM 18.64 65.552 0.216 6.83 2.64 8.55
8/5/2022 4:30:00 PM 18.65 65.57 0.216 6.82 2.64 8.54
8/5/2022 4:45:00 PM 18.68 65.624 0.215 6.82 2.72 8.54
8/5/2022 5:00:00 PM 18.72 65.696 0.215 6.83 2.7 8.53
8/5/2022 5:15:00 PM 18.73 65.714 0.215 6.82 2.51 8.52
8/5/2022 5:30:00 PM 18.73 65.714 0.215 6.83 2.78 8.52
8/5/2022 5:45:00 PM 18.74 65.732 0.215 6.82 2.49 8.52
8/5/2022 6:00:00 PM 18.75 65.75 0.215 6.8 2.58 8.51
8/5/2022 6:15:00 PM 18.75 65.75 0.215 6.81 2.59 8.51
8/5/2022 6:30:00 PM 18.75 65.75 0.214 6.81 2.57 8.51
8/5/2022 6:45:00 PM 18.75 65.75 0.214 6.79 2.63 8.5
8/5/2022 7:00:00 PM 18.74 65.732 0.214 6.8 2.62 8.5
8/5/2022 7:15:00 PM 18.72 65.696 0.214 6.79 2.59 8.49
8/5/2022 7:30:00 PM 18.71 65.67799 0.214 6.77 2.57 8.49
8/5/2022 7:45:00 PM 18.7 65.66 0.213 6.77 2.61 8.49
8/5/2022 8:00:00 PM 18.68 65.624 0.213 6.75 2.5 8.49
8/5/2022 8:15:00 PM 18.67 65.606 0.213 6.75 2.64 8.5
8/5/2022 8:30:00 PM 18.66 65.588 0.212 6.75 2.5 8.5
8/5/2022 8:45:00 PM 18.65 65.57 0.212 6.78 2.53 8.5
8/5/2022 9:00:00 PM 18.63 65.534 0.212 6.75 2.65 8.5
8/5/2022 9:15:00 PM 18.63 65.534 0.211 6.78 2.61 8.51
8/5/2022 9:30:00 PM 18.63 65.534 0.211 6.8 2.72 8.51
8/5/2022 9:45:00 PM 18.61 65.498 0.211 6.8 2.59 8.52
8/5/2022 10:00:00 PM 18.59 65.462 0.21 6.8 2.62 8.52
8/5/2022 10:15:00 PM 18.56 65.408 0.209 6.82 2.96 8.53
8/5/2022 10:30:00 PM 18.54 65.372 0.206 6.82 3.9 8.53
8/5/2022 10:45:00 PM 18.52 65.336 0.2 6.81 4.46 8.53
8/5/2022 11:00:00 PM 18.5 65.3 0.196 6.78 4.98 8.52
8/5/2022 11:15:00 PM 18.48 65.264 0.195 6.82 4.06 8.52
8/5/2022 11:30:00 PM 18.45 65.21 0.194 6.78 4.09 8.53
8/5/2022 11:45:00 PM 18.42 65.156 0.193 6.79 3.73 8.53
8/6/2022 12:00:00 AM 18.39 65.102 0.193 6.81 4.46 8.57
8/6/2022 12:15:00 AM 18.36 65.048 0.193 6.82 6.19 8.59
8/6/2022 12:30:00 AM 18.33 64.994 0.193 6.83 6.62 8.62
8/6/2022 12:45:00 AM 18.29 64.922 0.194 6.83 9.2 8.65
8/6/2022 1:00:00 AM 18.25 64.85 0.197 6.84 6.52 8.66
8/6/2022 1:15:00 AM 18.21 64.778 0.205 6.88 35.45 8.71
8/6/2022 1:30:00 AM 18.18 64.724 0.199 6.98 17.65 8.74
8/6/2022 1:45:00 AM 18.17 64.706 0.224 7 12.78 8.74
8/6/2022 2:00:00 AM 18.18 64.724 0.274 6.99 10.56 8.73
8/6/2022 2:15:00 AM 18.19 64.742 0.293 6.96 8.9 8.73
8/6/2022 2:30:00 AM 18.18 64.724 0.292 6.98 7.88 8.73
8/6/2022 2:45:00 AM 18.16 64.688 0.281 6.98 7.57 8.73
8/6/2022 3:00:00 AM 18.13 64.634 0.267 7.02 6.44 8.74
8/6/2022 3:15:00 AM 18.1 64.58 0.257 7.04 6.37 8.74
8/6/2022 3:30:00 AM 18.07 64.526 0.249 7.07 6.32 8.74
8/6/2022 3:45:00 AM 18.04 64.472 0.242 7.07 5.7 8.74
8/6/2022 4:00:00 AM 18.01 64.418 0.237 7.09 5.48 8.75
8/6/2022 4:15:00 AM 17.98 64.364 0.232 7.11 6.26 8.75
8/6/2022 4:30:00 AM 17.96 64.328 0.228 7.05 4.86 8.75
8/6/2022 4:45:00 AM 17.93 64.274 0.225 7.07 4.61 8.75
8/6/2022 5:00:00 AM 17.91 64.238 0.222 7.08 4.43 8.75
8/6/2022 5:15:00 AM 17.88 64.184 0.22 7.1 4.41 8.76
8/6/2022 5:30:00 AM 17.85 64.13 0.219 7.07 4 8.77
8/6/2022 5:45:00 AM 17.83 64.094 0.217 7.09 4.25 8.77
8/6/2022 6:00:00 AM 17.8 64.04 0.215 7.08 4.21 8.78
8/6/2022 6:15:00 AM 17.77 63.986 0.213 7.08 3.77 8.78
8/6/2022 6:30:00 AM 17.74 63.932 0.211 7.06 3.86 8.78
8/6/2022 6:45:00 AM 17.71 63.878 0.209 7.08 3.65 8.78
8/6/2022 7:00:00 AM 17.69 63.842 0.208 7.06 3.45 8.79
8/6/2022 7:15:00 AM 17.67 63.806 0.207 7.03 3.73 8.8
8/6/2022 7:30:00 AM 17.65 63.77 0.206 7.04 3.34 8.8
8/6/2022 7:45:00 AM 17.64 63.752 0.205 7.05 3.31 8.81
8/6/2022 8:00:00 AM 17.64 63.752 0.205 7.02 4.34 8.83
8/6/2022 8:15:00 AM 17.63 63.734 0.204 7.01 4.07 8.85
8/6/2022 8:30:00 AM 17.61 63.698 0.203 7.02 3.78 8.85
8/6/2022 8:45:00 AM 17.6 63.68 0.197 7 3.69 8.85
8/6/2022 9:00:00 AM 17.6 63.68 0.188 6.95 3.72 8.86
8/6/2022 9:15:00 AM 17.59 63.662 0.181 6.94 3.57 8.86
8/6/2022 9:30:00 AM 17.58 63.644 0.177 6.92 3.58 8.86
8/6/2022 9:45:00 AM 17.58 63.644 0.176 6.94 3.59 8.86
8/6/2022 10:00:00 AM 17.57 63.626 0.175 6.92 3.56 8.86
8/6/2022 10:15:00 AM 17.57 63.626 0.174 6.89 3.52 8.86
8/6/2022 10:30:00 AM 17.57 63.626 0.173 6.86 3.63 8.86
8/6/2022 10:45:00 AM 17.58 63.644 0.172 6.84 3.47 8.86
8/6/2022 11:00:00 AM 17.59 63.662 0.172 6.83 3.29 8.85
8/6/2022 11:15:00 AM 17.6 63.68 0.172 6.85 3.47 8.85
8/6/2022 11:30:00 AM 17.61 63.698 0.172 6.87 3.44 8.85
8/6/2022 11:45:00 AM 17.62 63.716 0.173 6.88 3.33 8.84
8/6/2022 12:00:00 PM 17.64 63.752 0.173 6.88 3.85 8.85
8/6/2022 12:15:00 PM 17.68 63.824 0.173 6.91 3.43 8.85
8/6/2022 12:30:00 PM 17.73 63.914 0.174 6.93 3.44 8.84
8/6/2022 12:45:00 PM 17.77 63.986 0.175 6.93 3.85 8.83
8/6/2022 1:00:00 PM 17.82 64.076 0.175 6.9 3.3 8.83
8/6/2022 1:15:00 PM 17.91 64.238 0.176 6.9 3.28 8.81
8/6/2022 1:30:00 PM 17.99 64.382 0.177 6.91 3.61 8.79
8/6/2022 1:45:00 PM 18.07 64.526 0.177 6.93 3.38 8.77
8/6/2022 2:00:00 PM 18.11 64.598 0.178 6.93 3.19 8.76
8/6/2022 2:15:00 PM 18.16 64.688 0.18 6.9 3.34 8.75
8/6/2022 2:30:00 PM 18.23 64.814 0.18 6.93 3.12 8.73
8/6/2022 2:45:00 PM 18.33 64.994 0.181 6.94 3.31 8.71
8/6/2022 3:00:00 PM 18.41 65.138 0.182 6.93 3.36 8.69
8/6/2022 3:15:00 PM 18.48 65.264 0.182 6.94 3.39 8.67
8/6/2022 3:30:00 PM 18.52 65.336 0.183 6.91 3.52 8.66
8/6/2022 3:45:00 PM 18.57 65.426 0.184 6.94 3.47 8.63
8/6/2022 4:00:00 PM 18.59 65.462 0.184 6.92 3.31 8.6
8/6/2022 4:15:00 PM 18.6 65.48 0.185 6.9 4.3 8.59
8/6/2022 4:30:00 PM 18.61 65.498 0.186 6.88 3.23 8.57
8/6/2022 4:45:00 PM 18.61 65.498 0.186 6.89 3.16 8.57
8/6/2022 5:00:00 PM 18.63 65.534 0.187 6.85 3.25 8.55
8/6/2022 5:15:00 PM 18.66 65.588 0.188 6.9 3.36 8.56
8/6/2022 5:30:00 PM 18.68 65.624 0.188 6.86 3.03 8.54
8/6/2022 5:45:00 PM 18.69 65.642 0.189 6.86 4.34 8.54
8/6/2022 6:00:00 PM 18.69 65.642 0.19 6.83 3.63 8.54
8/6/2022 6:15:00 PM 18.7 65.66 0.19 6.87 3.29 8.54
8/6/2022 6:30:00 PM 18.71 65.67799 0.191 6.85 5.58 8.55
8/6/2022 6:45:00 PM 18.7 65.66 0.192 6.85 3.16 8.55
8/6/2022 7:00:00 PM 18.7 65.66 0.192 6.84 3.47 8.54
8/6/2022 7:15:00 PM 18.69 65.642 0.193 6.81 3.16 8.54
8/6/2022 7:30:00 PM 18.67 65.606 0.193 6.8 3.28 8.55
8/6/2022 7:45:00 PM 18.66 65.588 0.194 6.86 3.21 8.55
8/6/2022 8:00:00 PM 18.65 65.57 0.194 6.81 3.5 8.55
8/6/2022 8:15:00 PM 18.63 65.534 0.195 6.84 3.2 8.53
8/6/2022 8:30:00 PM 18.61 65.498 0.195 6.81 3.01 8.55
8/6/2022 8:45:00 PM 18.6 65.48 0.195 6.83 3.15 8.55
8/6/2022 9:00:00 PM 18.58 65.444 0.196 6.8 3.81 8.56
8/6/2022 9:15:00 PM 18.56 65.408 0.196 6.79 3.68 8.56
8/6/2022 9:30:00 PM 18.55 65.39 0.196 6.78 3.81 8.57
8/6/2022 9:45:00 PM 18.53 65.354 0.197 6.8 4.59 8.56
8/6/2022 10:00:00 PM 18.52 65.336 0.197 6.78 3.11 8.57
8/6/2022 10:15:00 PM 18.51 65.318 0.197 6.81 3.33 8.57
8/6/2022 10:30:00 PM 18.49 65.282 0.197 6.81 3.19 8.58
8/6/2022 10:45:00 PM 18.48 65.264 0.197 6.78 4.16 8.57
8/6/2022 11:00:00 PM 18.46 65.228 0.198 6.78 3.88 8.57
8/6/2022 11:15:00 PM 18.44 65.192 0.198 6.82 4.01 8.58
8/6/2022 11:30:00 PM 18.43 65.174 0.198 6.79 2.94 8.58
8/6/2022 11:45:00 PM 18.41 65.138 0.198 6.81 4.64 8.59
8/7/2022 12:00:00 AM 18.4 65.12 0.198 6.79 3.38 8.59
8/7/2022 12:15:00 AM 18.38 65.084 0.199 6.84 4.73 8.59
8/7/2022 12:30:00 AM 18.36 65.048 0.199 6.82 3.18 8.6
8/7/2022 12:45:00 AM 18.34 65.012 0.199 6.8 3.96 8.6
8/7/2022 1:00:00 AM 18.33 64.994 0.199 6.86 3.71 8.6
8/7/2022 1:15:00 AM 18.31 64.958 0.2 6.81 3.67 8.61
8/7/2022 1:30:00 AM 18.29 64.922 0.2 6.8 3.17 8.61
8/7/2022 1:45:00 AM 18.28 64.904 0.2 6.83 3.69 8.62
8/7/2022 2:00:00 AM 18.26 64.868 0.201 6.82 3.56 8.62
8/7/2022 2:15:00 AM 18.24 64.832 0.201 6.83 3.2 8.62
8/7/2022 2:30:00 AM 18.22 64.796 0.201 6.8 3.22 8.62
8/7/2022 2:45:00 AM 18.21 64.778 0.201 6.85 3.29 8.63
8/7/2022 3:00:00 AM 18.19 64.742 0.202 6.87 2.95 8.62
8/7/2022 3:15:00 AM 18.17 64.706 0.202 6.88 3.21 8.63
8/7/2022 3:30:00 AM 18.15 64.67 0.203 6.85 3.21 8.64
8/7/2022 3:45:00 AM 18.13 64.634 0.203 6.87 3.96 8.64
8/7/2022 4:00:00 AM 18.11 64.598 0.203 6.88 3.11 8.63
8/7/2022 4:15:00 AM 18.09 64.562 0.203 6.88 3.2 8.64
8/7/2022 4:30:00 AM 18.07 64.526 0.204 6.87 3.11 8.64
8/7/2022 4:45:00 AM 18.06 64.508 0.204 6.85 3.1 8.65
8/7/2022 5:00:00 AM 18.05 64.49 0.204 6.86 9.19 8.65
8/7/2022 5:15:00 AM 18.03 64.454 0.205 6.84 2.96 8.65
8/7/2022 5:30:00 AM 18.02 64.436 0.205 6.85 3.1 8.65
8/7/2022 5:45:00 AM 18.01 64.418 0.205 6.83 3.44 8.65
8/7/2022 6:00:00 AM 18 64.4 0.206 6.81 3.14 8.66
8/7/2022 6:15:00 AM 17.99 64.382 0.206 6.78 3.06 8.65
8/7/2022 6:30:00 AM 17.98 64.364 0.207 6.8 5 8.66
8/7/2022 6:45:00 AM 17.98 64.364 0.207 6.76 3.35 8.65
8/7/2022 7:00:00 AM 17.97 64.346 0.207 6.78 3.11 8.67
8/7/2022 7:15:00 AM 17.97 64.346 0.207 6.78 3.78 8.66
8/7/2022 7:30:00 AM 17.96 64.328 0.207 6.77 3.39 8.65
8/7/2022 7:45:00 AM 17.96 64.328 0.207 6.75 3.3 8.65
8/7/2022 8:00:00 AM 17.95 64.31 0.207 6.77 4.05 8.66
8/7/2022 8:15:00 AM 17.95 64.31 0.207 6.78 3.48 8.66
8/7/2022 8:30:00 AM 17.94 64.292 0.207 6.81 3.38 8.66
8/7/2022 8:45:00 AM 17.94 64.292 0.207 6.8 2.97 8.66
8/7/2022 9:00:00 AM 17.94 64.292 0.207 6.78 2.98 8.67
8/7/2022 9:15:00 AM 17.94 64.292 0.208 6.76 2.96 8.67
8/7/2022 9:30:00 AM 17.95 64.31 0.208 6.77 3.39 8.67
8/7/2022 9:45:00 AM 17.97 64.346 0.208 6.79 3.2 8.68
8/7/2022 10:00:00 AM 17.98 64.364 0.209 6.77 3.22 8.67
8/7/2022 10:15:00 AM 17.99 64.382 0.21 6.84 3.4 8.68
8/7/2022 10:30:00 AM 18.01 64.418 0.21 6.85 2.97 8.67
8/7/2022 10:45:00 AM 18.02 64.436 0.211 6.86 2.98 8.67
8/7/2022 11:00:00 AM 18.04 64.472 0.211 6.84 2.9 8.67
8/7/2022 11:15:00 AM 18.06 64.508 0.211 6.82 2.83 8.67
8/7/2022 11:30:00 AM 18.09 64.562 0.211 6.85 2.82 8.67
8/7/2022 11:45:00 AM 18.14 64.652 0.211 6.85 3.04 8.67
8/7/2022 12:00:00 PM 18.23 64.814 0.211 6.91 3.01 8.66
8/7/2022 12:15:00 PM 18.32 64.976 0.21 6.94 2.81 8.65
8/7/2022 12:30:00 PM 18.43 65.174 0.21 6.94 2.76 8.64
8/7/2022 12:45:00 PM 18.54 65.372 0.21 6.92 2.87 8.61
8/7/2022 1:00:00 PM 18.65 65.57 0.21 6.92 2.96 8.6
8/7/2022 1:15:00 PM 18.74 65.732 0.21 6.92 3.48 8.57
8/7/2022 1:30:00 PM 18.82 65.876 0.21 6.94 3.14 8.56
8/7/2022 1:45:00 PM 18.9 66.02 0.21 6.92 3.31 8.54
8/7/2022 2:00:00 PM 18.98 66.164 0.21 6.93 3.17 8.52
8/7/2022 2:15:00 PM 19.05 66.29 0.21 6.93 3.15 8.51
8/7/2022 2:30:00 PM 19.13 66.434 0.21 6.91 2.96 8.49
8/7/2022 2:45:00 PM 19.2 66.56 0.21 6.91 2.94 8.47
8/7/2022 3:00:00 PM 19.27 66.686 0.211 6.93 3.03 8.46
8/7/2022 3:15:00 PM 19.33 66.794 0.211 6.92 2.96 8.45
8/7/2022 3:30:00 PM 19.39 66.902 0.211 6.93 2.98 8.43
8/7/2022 3:45:00 PM 19.43 66.974 0.211 6.93 2.9 8.42
8/7/2022 4:00:00 PM 19.46 67.028 0.21 6.9 3.2 8.41
8/7/2022 4:15:00 PM 19.49 67.082 0.21 6.91 3.07 8.4
8/7/2022 4:30:00 PM 19.53 67.154 0.21 6.9 2.99 8.39
8/7/2022 4:45:00 PM 19.55 67.19 0.21 6.92 3.45 8.38
8/7/2022 5:00:00 PM 19.57 67.226 0.21 6.9 2.84 8.37
8/7/2022 5:15:00 PM 19.59 67.262 0.21 6.88 3.71 8.36
8/7/2022 5:30:00 PM 19.6 67.28 0.21 6.88 3.99 8.35
8/7/2022 5:45:00 PM 19.61 67.298 0.209 6.87 2.97 8.35
8/7/2022 6:00:00 PM 19.61 67.298 0.209 6.87 3.12 8.34
8/7/2022 6:15:00 PM 19.62 67.316 0.209 6.88 3.09 8.34
8/7/2022 6:30:00 PM 19.62 67.316 0.209 6.88 3.29 8.34
8/7/2022 6:45:00 PM 19.62 67.316 0.209 6.85 3.06 8.34
8/7/2022 7:00:00 PM 19.62 67.316 0.209 6.87 2.97 8.33
8/7/2022 7:15:00 PM 19.61 67.298 0.209 6.85 3.18 8.33
8/7/2022 7:30:00 PM 19.6 67.28 0.209 6.84 2.91 8.33
8/7/2022 7:45:00 PM 19.58 67.244 0.209 6.84 2.89 8.33
8/7/2022 8:00:00 PM 19.56 67.208 0.208 6.84 3.14 8.33
8/7/2022 8:15:00 PM 19.54 67.172 0.208 6.84 3.17 8.33
8/7/2022 8:30:00 PM 19.52 67.136 0.208 6.83 2.94 8.33
8/7/2022 8:45:00 PM 19.5 67.1 0.208 6.81 3.22 8.34
8/7/2022 9:00:00 PM 19.48 67.064 0.207 6.8 3.19 8.34
8/7/2022 9:15:00 PM 19.46 67.028 0.207 6.83 3.15 8.34
8/7/2022 9:30:00 PM 19.44 66.992 0.207 6.82 3.31 8.34
8/7/2022 9:45:00 PM 19.42 66.956 0.206 6.81 3.21 8.35
8/7/2022 10:00:00 PM 19.39 66.902 0.206 6.82 3.11 8.35
8/7/2022 10:15:00 PM 19.37 66.866 0.206 6.82 3.37 8.36
8/7/2022 10:30:00 PM 19.35 66.83 0.205 6.84 3.31 8.36
8/7/2022 10:45:00 PM 19.33 66.794 0.205 6.81 3.19 8.37
8/7/2022 11:00:00 PM 19.31 66.758 0.205 6.8 4.57 8.37
8/7/2022 11:15:00 PM 19.29 66.722 0.205 6.8 3.1 8.37
8/7/2022 11:30:00 PM 19.26 66.668 0.204 6.82 3.14 8.37
8/7/2022 11:45:00 PM 19.24 66.632 0.204 6.81 3.21 8.38
8/8/2022 12:00:00 AM 19.21 66.578 0.203 6.8 3.15 8.38
8/8/2022 12:15:00 AM 19.19 66.542 0.203 6.83 3.09 8.39
8/8/2022 12:30:00 AM 19.17 66.506 0.203 6.82 3.18 8.4
8/8/2022 12:45:00 AM 19.15 66.47 0.203 6.8 3.23 8.4
8/8/2022 1:00:00 AM 19.12 66.416 0.203 6.81 3.26 8.4
8/8/2022 1:15:00 AM 19.1 66.38 0.203 6.8 3.09 8.41
8/8/2022 1:30:00 AM 19.07 66.326 0.203 6.81 3.16 8.41
8/8/2022 1:45:00 AM 19.05 66.29 0.203 6.84 3.39 8.42
8/8/2022 2:00:00 AM 19.02 66.236 0.203 6.85 3.03 8.42
8/8/2022 2:15:00 AM 19 66.2 0.203 6.83 2.91 8.42
8/8/2022 2:30:00 AM 18.98 66.164 0.203 6.85 2.97 8.43
8/8/2022 2:45:00 AM 18.96 66.128 0.203 6.83 2.96 8.43
8/8/2022 3:00:00 AM 18.93 66.074 0.203 6.85 6.29 8.43
8/8/2022 3:15:00 AM 18.91 66.038 0.203 6.84 2.94 8.44
8/8/2022 3:30:00 AM 18.89 66.002 0.204 6.84 2.99 8.44
8/8/2022 3:45:00 AM 18.86 65.948 0.204 6.85 2.8 8.45
8/8/2022 4:00:00 AM 18.84 65.912 0.205 6.85 3.02 8.45
8/8/2022 4:15:00 AM 18.82 65.876 0.205 6.83 3.03 8.46
8/8/2022 4:30:00 AM 18.8 65.84 0.206 6.85 3.28 8.46
8/8/2022 4:45:00 AM 18.78 65.804 0.206 6.85 3.01 8.46
8/8/2022 5:00:00 AM 18.77 65.786 0.207 6.83 3.14 8.47
8/8/2022 5:15:00 AM 18.76 65.768 0.207 6.83 2.9 8.46
8/8/2022 5:30:00 AM 18.74 65.732 0.208 6.82 3.12 8.47
8/8/2022 5:45:00 AM 18.72 65.696 0.209 6.85 3.3 8.47
8/8/2022 6:00:00 AM 18.7 65.66 0.209 6.82 3.09 8.47
8/8/2022 6:15:00 AM 18.69 65.642 0.21 6.81 3.13 8.48
8/8/2022 6:30:00 AM 18.67 65.606 0.21 6.84 2.99 8.48
8/8/2022 6:45:00 AM 18.66 65.588 0.211 6.82 3.04 8.49
8/8/2022 7:00:00 AM 18.65 65.57 0.212 6.81 2.93 8.49
8/8/2022 7:15:00 AM 18.64 65.552 0.212 6.85 2.91 8.49
8/8/2022 7:30:00 AM 18.63 65.534 0.213 6.85 3.13 8.5
8/8/2022 7:45:00 AM 18.62 65.516 0.213 6.84 3.3 8.5
8/8/2022 8:00:00 AM 18.62 65.516 0.214 6.82 2.86 8.5
8/8/2022 8:15:00 AM 18.62 65.516 0.214 6.85 3.09 8.51
8/8/2022 8:30:00 AM 18.63 65.534 0.215 6.85 3.39 8.51
8/8/2022 8:45:00 AM 18.64 65.552 0.215 6.85 3.07 8.51
8/8/2022 9:00:00 AM 18.64 65.552 0.215 6.83 3.07 8.5
8/8/2022 9:15:00 AM 18.65 65.57 0.216 6.85 3 8.5
8/8/2022 9:30:00 AM 18.66 65.588 0.216 6.82 2.98 8.51
8/8/2022 9:45:00 AM 18.68 65.624 0.217 6.81 3.44 8.5
8/8/2022 10:00:00 AM 18.7 65.66 0.217 6.84 2.78 8.51
8/8/2022 10:15:00 AM 18.73 65.714 0.218 6.86 3.03 8.5
8/8/2022 10:30:00 AM 18.77 65.786 0.218 6.86 2.9 8.5

These are provisional data and have not been subject to a quality assurance process, but rather are the raw data reported by the instrument.
H: value is above sensor operating range
L: value is below sensor operating range
Offline: station is not reporting data
NC: parameter is not collected at site

Data Availability & Limitations

Uncertainty and potential for error can be associated with environmental monitoring data. Provisional data have not been subject to a quality assurance process, but rather are the raw data reported by the instrument. Data users are cautioned to consider carefully the provisional nature of the information before using it for decisions that concern personal or public safety or the conduct of business that involves substantial monetary or operational consequences.

Approved data are currently available by request by emailing: srbc@srbc.net. Approved data have been subject to a quality assurance process to correct for equipment or fouling drift. Data recorded during equipment malfunctions have been removed.

View Historical Stations that have been discontinued.